Terminal Aerodrome Forecast
Issued by NWS Billings, MT

Home | Current Version | Previous Version | Graphics & Text | Print | Product List | Glossary On
Versions: 1 2 3 4 5 6 7 8 9 10 11 12 13 14 15 16 17 18 19 20 21 22
000
FTUS45 KBYZ 271416 AAA
TAFMLS
TAF AMD
KMLS 271416Z 2714/2812 01005KT P6SM BKN005 BKN020 OVC050
     FM271600 02008KT P6SM SCT005 BKN015 OVC030
     FM271800 36007KT P6SM -RA OVC030=

USA.gov is the U.S. government's official web portal to all federal, state and local government web resources and services.